DLH5KD DTTA-EDDM
Flight info
| Callsign | DLH5KD |
|---|---|
| Flight time | 1h 41m |
| Altitude | 36000 |
| Route | TOBIB2A TOBIB A725 TANIT UA725 OSMAR DCT TIVUK DCT QUENN DCT VELAD DCT GINAR DCT SOTOV/N0352F240 T101 BETOS |
| Aircraft | A320/M-SDE2E3FGIJ1LORWXYZ/HB1 |
Departure
| Time | 2026-05-06 10:30 |
|---|---|
| Airport | Tunis Carthage International Airport (DTTA) |
Arrival
| Time | 2026-05-06 12:12 |
|---|---|
| Airport | Munich Airport (EDDM) |
| Time | Latitude | Longitude | Altitude | Speed | Heading |
|---|---|---|---|---|---|
| 2026-05-06 10:07 | 36.84645 | 10.21995 | 30 ft | 0 kts | 244° |
| 2026-05-06 10:23 | 36.84651 | 10.22010 | 4 ft | 3 kts | 240° |
| 2026-05-06 10:23 | 36.84661 | 10.22031 | 6 ft | 3 kts | 239° |
| 2026-05-06 10:23 | 36.84670 | 10.22053 | 31 ft | 3 kts | 262° |
| 2026-05-06 10:23 | 36.84671 | 10.22068 | 30 ft | 0 kts | 274° |
| 2026-05-06 10:24 | 36.84671 | 10.22073 | 30 ft | 0 kts | 274° |
| 2026-05-06 10:24 | 36.84670 | 10.22091 | 30 ft | 2 kts | 274° |
| 2026-05-06 10:24 | 36.84674 | 10.22110 | 31 ft | 2 kts | 189° |
| 2026-05-06 10:24 | 36.84680 | 10.22111 | 30 ft | 0 kts | 175° |
| 2026-05-06 10:25 | 36.84631 | 10.22103 | 30 ft | 14 kts | 191° |
| 2026-05-06 10:26 | 36.84526 | 10.22095 | 30 ft | 16 kts | 150° |
| 2026-05-06 10:26 | 36.84493 | 10.22226 | 30 ft | 17 kts | 79° |
| 2026-05-06 10:26 | 36.84598 | 10.22285 | 30 ft | 18 kts | 12° |
| 2026-05-06 10:26 | 36.84729 | 10.22320 | 30 ft | 20 kts | 12° |
| 2026-05-06 10:27 | 36.84873 | 10.22358 | 30 ft | 22 kts | 12° |
| 2026-05-06 10:27 | 36.85010 | 10.22347 | 31 ft | 21 kts | 301° |
| 2026-05-06 10:27 | 36.85069 | 10.22174 | 31 ft | 22 kts | 292° |
| 2026-05-06 10:27 | 36.85127 | 10.22002 | 30 ft | 21 kts | 292° |
| 2026-05-06 10:28 | 36.85182 | 10.21835 | 30 ft | 21 kts | 292° |
| 2026-05-06 10:28 | 36.85271 | 10.21714 | 30 ft | 19 kts | 5° |
| 2026-05-06 10:28 | 36.85391 | 10.21785 | 30 ft | 19 kts | 51° |
| 2026-05-06 10:28 | 36.85387 | 10.21888 | 30 ft | 0 kts | 112° |
| 2026-05-06 10:29 | 36.85337 | 10.22036 | 32 ft | 53 kts | 112° |
| 2026-05-06 10:30 | 36.85105 | 10.22732 | 35 ft | 117 kts | 112° |
| 2026-05-06 10:30 | 36.84727 | 10.23873 | 113 ft | 160 kts | 112° |
| 2026-05-06 10:30 | 36.84302 | 10.25127 | 888 ft | 155 kts | 113° |
| 2026-05-06 10:30 | 36.83887 | 10.26379 | 1583 ft | 162 kts | 115° |
| 2026-05-06 10:31 | 36.83427 | 10.27764 | 1980 ft | 185 kts | 115° |
| 2026-05-06 10:31 | 36.82874 | 10.29304 | 2538 ft | 200 kts | 124° |
| 2026-05-06 10:31 | 36.81770 | 10.30346 | 3281 ft | 208 kts | 165° |
| 2026-05-06 10:31 | 36.80320 | 10.30198 | 4073 ft | 218 kts | 205° |
| 2026-05-06 10:32 | 36.79266 | 10.28840 | 4904 ft | 227 kts | 246° |
| 2026-05-06 10:32 | 36.79173 | 10.26886 | 5760 ft | 234 kts | 286° |
| 2026-05-06 10:32 | 36.80122 | 10.25243 | 6634 ft | 241 kts | 322° |
| 2026-05-06 10:32 | 36.81604 | 10.24246 | 7475 ft | 245 kts | 336° |
| 2026-05-06 10:33 | 36.83221 | 10.23528 | 8283 ft | 249 kts | 340° |
| 2026-05-06 10:33 | 36.84890 | 10.22873 | 9070 ft | 254 kts | 342° |
| 2026-05-06 10:33 | 36.86681 | 10.22419 | 9592 ft | 274 kts | 346° |
| 2026-05-06 10:33 | 36.88633 | 10.21922 | 9975 ft | 298 kts | 345° |
| 2026-05-06 10:34 | 36.90732 | 10.21343 | 10329 ft | 321 kts | 344° |
| 2026-05-06 10:34 | 36.92985 | 10.20680 | 10657 ft | 343 kts | 343° |
| 2026-05-06 10:34 | 36.95344 | 10.19963 | 11276 ft | 354 kts | 343° |
| 2026-05-06 10:34 | 36.97764 | 10.19216 | 11962 ft | 362 kts | 343° |
| 2026-05-06 10:35 | 37.00228 | 10.18444 | 12716 ft | 368 kts | 342° |
| 2026-05-06 10:35 | 37.02728 | 10.17658 | 13471 ft | 373 kts | 342° |
| 2026-05-06 10:35 | 37.05262 | 10.16863 | 14178 ft | 378 kts | 342° |
| 2026-05-06 10:35 | 37.07823 | 10.16063 | 14877 ft | 381 kts | 342° |
| 2026-05-06 10:36 | 37.10399 | 10.15260 | 15617 ft | 382 kts | 341° |
| 2026-05-06 10:36 | 37.12985 | 10.14454 | 16359 ft | 384 kts | 341° |
| 2026-05-06 10:36 | 37.15582 | 10.13646 | 17115 ft | 385 kts | 341° |
| 2026-05-06 10:36 | 37.18190 | 10.12837 | 17857 ft | 387 kts | 341° |
| 2026-05-06 10:37 | 37.20805 | 10.12022 | 18533 ft | 388 kts | 341° |
| 2026-05-06 10:37 | 37.23399 | 10.11210 | 19128 ft | 391 kts | 341° |
| 2026-05-06 10:37 | 37.26043 | 10.10378 | 19731 ft | 393 kts | 341° |
| 2026-05-06 10:37 | 37.28701 | 10.09543 | 20357 ft | 395 kts | 341° |
| 2026-05-06 10:38 | 37.31384 | 10.08702 | 20891 ft | 400 kts | 341° |
| 2026-05-06 10:38 | 37.34093 | 10.07851 | 21447 ft | 403 kts | 341° |
| 2026-05-06 10:38 | 37.36821 | 10.06992 | 22002 ft | 405 kts | 341° |
| 2026-05-06 10:38 | 37.39567 | 10.06128 | 22560 ft | 408 kts | 341° |
| 2026-05-06 10:39 | 37.42329 | 10.05257 | 23113 ft | 410 kts | 341° |
| 2026-05-06 10:39 | 37.45108 | 10.04378 | 23631 ft | 413 kts | 341° |
| 2026-05-06 10:39 | 37.47937 | 10.03480 | 24083 ft | 415 kts | 341° |
| 2026-05-06 10:39 | 37.50750 | 10.02587 | 24533 ft | 417 kts | 341° |
| 2026-05-06 10:40 | 37.53571 | 10.01691 | 24978 ft | 420 kts | 341° |
| 2026-05-06 10:40 | 37.56416 | 10.00789 | 25362 ft | 423 kts | 341° |
| 2026-05-06 10:40 | 37.59244 | 9.99893 | 25762 ft | 426 kts | 341° |
| 2026-05-06 10:40 | 37.62128 | 9.98983 | 26184 ft | 428 kts | 341° |
| 2026-05-06 10:41 | 37.65025 | 9.98069 | 26608 ft | 430 kts | 341° |
| 2026-05-06 10:41 | 37.67935 | 9.97147 | 27028 ft | 432 kts | 341° |
| 2026-05-06 10:41 | 37.70897 | 9.96203 | 27449 ft | 434 kts | 341° |
| 2026-05-06 10:41 | 37.73790 | 9.95279 | 27845 ft | 436 kts | 341° |
| 2026-05-06 10:42 | 37.76738 | 9.94337 | 28256 ft | 438 kts | 341° |
| 2026-05-06 10:42 | 37.79703 | 9.93389 | 28644 ft | 441 kts | 340° |
| 2026-05-06 10:42 | 37.82692 | 9.92436 | 28989 ft | 444 kts | 340° |
| 2026-05-06 10:42 | 37.85700 | 9.91479 | 29358 ft | 447 kts | 340° |
| 2026-05-06 10:43 | 37.88726 | 9.90518 | 29733 ft | 449 kts | 340° |
| 2026-05-06 10:43 | 37.91764 | 9.89552 | 30088 ft | 452 kts | 340° |
| 2026-05-06 10:43 | 37.94818 | 9.88575 | 30393 ft | 454 kts | 340° |
| 2026-05-06 10:44 | 38.00963 | 9.86606 | 31000 ft | 457 kts | 340° |
| 2026-05-06 10:44 | 38.04054 | 9.85615 | 31291 ft | 459 kts | 340° |
| 2026-05-06 10:44 | 38.07151 | 9.84620 | 31583 ft | 460 kts | 340° |
| 2026-05-06 10:44 | 38.10258 | 9.83622 | 31956 ft | 460 kts | 340° |
| 2026-05-06 10:45 | 38.13358 | 9.82628 | 32356 ft | 459 kts | 340° |
| 2026-05-06 10:45 | 38.16457 | 9.81635 | 32721 ft | 459 kts | 340° |
| 2026-05-06 10:45 | 38.19552 | 9.80645 | 33130 ft | 458 kts | 340° |
| 2026-05-06 10:45 | 38.22659 | 9.79741 | 33498 ft | 461 kts | 345° |
| 2026-05-06 10:46 | 38.25874 | 9.79378 | 33914 ft | 468 kts | 354° |
| 2026-05-06 10:46 | 38.29147 | 9.79647 | 34187 ft | 476 kts | 4° |
| 2026-05-06 10:46 | 38.32417 | 9.80412 | 34475 ft | 478 kts | 6° |
| 2026-05-06 10:46 | 38.35683 | 9.81212 | 34799 ft | 478 kts | 5° |
| 2026-05-06 10:47 | 38.38942 | 9.82013 | 35130 ft | 477 kts | 5° |
| 2026-05-06 10:47 | 38.42195 | 9.82812 | 35454 ft | 475 kts | 5° |
| 2026-05-06 10:47 | 38.45437 | 9.83606 | 35765 ft | 474 kts | 5° |
| 2026-05-06 10:47 | 38.48672 | 9.84400 | 36001 ft | 472 kts | 5° |
| 2026-05-06 10:48 | 38.51879 | 9.85188 | 36014 ft | 467 kts | 5° |
| 2026-05-06 10:48 | 38.58237 | 9.86740 | 36016 ft | 464 kts | 5° |
| 2026-05-06 10:49 | 38.64580 | 9.88292 | 36016 ft | 464 kts | 5° |
| 2026-05-06 10:49 | 38.70916 | 9.89859 | 36030 ft | 464 kts | 5° |
| 2026-05-06 10:50 | 38.77259 | 9.91428 | 36011 ft | 464 kts | 5° |
| 2026-05-06 10:50 | 38.83607 | 9.92999 | 36013 ft | 465 kts | 6° |
| 2026-05-06 10:51 | 38.89831 | 9.95529 | 36012 ft | 471 kts | 14° |
| 2026-05-06 10:51 | 38.96009 | 9.98347 | 36027 ft | 472 kts | 15° |
| 2026-05-06 10:52 | 39.02204 | 10.01178 | 36010 ft | 473 kts | 15° |
| 2026-05-06 10:52 | 39.08410 | 10.04022 | 36007 ft | 474 kts | 15° |
| 2026-05-06 10:53 | 39.14622 | 10.06863 | 36017 ft | 474 kts | 15° |
| 2026-05-06 10:53 | 39.20845 | 10.09716 | 36009 ft | 475 kts | 15° |
| 2026-05-06 10:54 | 39.27073 | 10.12575 | 36007 ft | 475 kts | 15° |
| 2026-05-06 10:54 | 39.33300 | 10.15450 | 36005 ft | 476 kts | 15° |
| 2026-05-06 10:55 | 39.39532 | 10.18345 | 36029 ft | 476 kts | 15° |
| 2026-05-06 10:55 | 39.45767 | 10.21231 | 35999 ft | 476 kts | 15° |
| 2026-05-06 10:56 | 39.51991 | 10.24117 | 36010 ft | 475 kts | 15° |
| 2026-05-06 10:56 | 39.58209 | 10.27009 | 36027 ft | 474 kts | 15° |
| 2026-05-06 10:57 | 39.64421 | 10.29901 | 36024 ft | 474 kts | 15° |
| 2026-05-06 10:57 | 39.70627 | 10.32800 | 36015 ft | 474 kts | 15° |
| 2026-05-06 10:58 | 39.75781 | 10.35205 | 36011 ft | 474 kts | 15° |
| 2026-05-06 10:58 | 39.82987 | 10.38574 | 36021 ft | 474 kts | 15° |
| 2026-05-06 10:59 | 39.89188 | 10.41479 | 36010 ft | 474 kts | 15° |
| 2026-05-06 10:59 | 39.95386 | 10.44397 | 36007 ft | 474 kts | 16° |
| 2026-05-06 11:00 | 40.00535 | 10.46826 | 36014 ft | 473 kts | 16° |
| 2026-05-06 11:00 | 40.06734 | 10.49747 | 36009 ft | 474 kts | 16° |
| 2026-05-06 11:01 | 40.12974 | 10.52692 | 35998 ft | 474 kts | 16° |
| 2026-05-06 11:01 | 40.19269 | 10.54684 | 35999 ft | 464 kts | 0° |
| 2026-05-06 11:02 | 40.25744 | 10.55397 | 35993 ft | 464 kts | 360° |
| 2026-05-06 11:02 | 40.32137 | 10.56121 | 35991 ft | 464 kts | 360° |
| 2026-05-06 11:03 | 40.38586 | 10.56871 | 35991 ft | 465 kts | 360° |
| 2026-05-06 11:03 | 40.45029 | 10.57613 | 35992 ft | 464 kts | 359° |
| 2026-05-06 11:04 | 40.51463 | 10.58348 | 36010 ft | 463 kts | 359° |
| 2026-05-06 11:04 | 40.57880 | 10.59081 | 36011 ft | 462 kts | 359° |
| 2026-05-06 11:05 | 40.64287 | 10.59817 | 36003 ft | 462 kts | 359° |
| 2026-05-06 11:05 | 40.70688 | 10.60558 | 36006 ft | 462 kts | 0° |
| 2026-05-06 11:06 | 40.77087 | 10.61288 | 36001 ft | 461 kts | 360° |
| 2026-05-06 11:06 | 40.83486 | 10.62017 | 35991 ft | 461 kts | 0° |
| 2026-05-06 11:07 | 40.89849 | 10.62753 | 35991 ft | 461 kts | 0° |
| 2026-05-06 11:07 | 40.96252 | 10.63504 | 35979 ft | 462 kts | 0° |
| 2026-05-06 11:08 | 41.02658 | 10.64256 | 35976 ft | 462 kts | 0° |
| 2026-05-06 11:08 | 41.09072 | 10.64998 | 35988 ft | 463 kts | 0° |
| 2026-05-06 11:09 | 41.15499 | 10.65743 | 35967 ft | 464 kts | 0° |
| 2026-05-06 11:09 | 41.21935 | 10.66496 | 35960 ft | 465 kts | 0° |
| 2026-05-06 11:10 | 41.28391 | 10.67250 | 35988 ft | 465 kts | 360° |
| 2026-05-06 11:10 | 41.34854 | 10.68010 | 35978 ft | 466 kts | 360° |
| 2026-05-06 11:11 | 41.41319 | 10.68773 | 35971 ft | 467 kts | 360° |
| 2026-05-06 11:11 | 41.47804 | 10.69531 | 35970 ft | 467 kts | 359° |
| 2026-05-06 11:12 | 41.54284 | 10.70290 | 35979 ft | 468 kts | 359° |
| 2026-05-06 11:12 | 41.60738 | 10.71053 | 35975 ft | 468 kts | 359° |
| 2026-05-06 11:13 | 41.67268 | 10.71828 | 35969 ft | 468 kts | 359° |
| 2026-05-06 11:13 | 41.73715 | 10.72599 | 35980 ft | 469 kts | 359° |
| 2026-05-06 11:14 | 41.80219 | 10.73377 | 35971 ft | 470 kts | 359° |
| 2026-05-06 11:14 | 41.86775 | 10.74150 | 36239 ft | 475 kts | 359° |
| 2026-05-06 11:14 | 41.90070 | 10.74539 | 36508 ft | 475 kts | 360° |
| 2026-05-06 11:15 | 41.93362 | 10.74937 | 36819 ft | 474 kts | 0° |
| 2026-05-06 11:15 | 41.96646 | 10.75342 | 37124 ft | 473 kts | 0° |
| 2026-05-06 11:15 | 41.99923 | 10.75746 | 37431 ft | 472 kts | 0° |
| 2026-05-06 11:15 | 42.03187 | 10.76141 | 37732 ft | 471 kts | 0° |
| 2026-05-06 11:16 | 42.06453 | 10.76501 | 37945 ft | 470 kts | 359° |
| 2026-05-06 11:16 | 42.12953 | 10.76822 | 37968 ft | 466 kts | 356° |
| 2026-05-06 11:17 | 42.19428 | 10.76892 | 37958 ft | 465 kts | 355° |
| 2026-05-06 11:17 | 42.25946 | 10.77003 | 37959 ft | 465 kts | 356° |
| 2026-05-06 11:18 | 42.32425 | 10.77205 | 37958 ft | 466 kts | 357° |
| 2026-05-06 11:18 | 42.38904 | 10.77453 | 37956 ft | 466 kts | 357° |
| 2026-05-06 11:19 | 42.45387 | 10.77686 | 37958 ft | 466 kts | 356° |
| 2026-05-06 11:19 | 42.51870 | 10.77894 | 37965 ft | 466 kts | 356° |
| 2026-05-06 11:20 | 42.58354 | 10.78103 | 37968 ft | 466 kts | 356° |
| 2026-05-06 11:20 | 42.64839 | 10.78314 | 37968 ft | 466 kts | 356° |
| 2026-05-06 11:21 | 42.71323 | 10.78526 | 37968 ft | 466 kts | 356° |
| 2026-05-06 11:21 | 42.77812 | 10.78737 | 37984 ft | 466 kts | 357° |
| 2026-05-06 11:22 | 42.84298 | 10.78941 | 37979 ft | 466 kts | 357° |
| 2026-05-06 11:22 | 42.90784 | 10.79165 | 37960 ft | 466 kts | 357° |
| 2026-05-06 11:23 | 42.97265 | 10.79387 | 37971 ft | 466 kts | 357° |
| 2026-05-06 11:23 | 43.03749 | 10.79613 | 37968 ft | 466 kts | 357° |
| 2026-05-06 11:24 | 43.10227 | 10.79829 | 37963 ft | 466 kts | 357° |
| 2026-05-06 11:24 | 43.16703 | 10.80034 | 37969 ft | 466 kts | 357° |
| 2026-05-06 11:25 | 43.23184 | 10.80249 | 37957 ft | 466 kts | 357° |
| 2026-05-06 11:25 | 43.29662 | 10.80468 | 37946 ft | 466 kts | 357° |
| 2026-05-06 11:26 | 43.36145 | 10.80689 | 37956 ft | 466 kts | 357° |
| 2026-05-06 11:26 | 43.42639 | 10.80909 | 37934 ft | 467 kts | 357° |
| 2026-05-06 11:27 | 43.49139 | 10.81125 | 37923 ft | 467 kts | 357° |
| 2026-05-06 11:27 | 43.55645 | 10.81346 | 37931 ft | 468 kts | 357° |
| 2026-05-06 11:28 | 43.62156 | 10.81575 | 37933 ft | 468 kts | 357° |
| 2026-05-06 11:28 | 43.68679 | 10.82037 | 37927 ft | 470 kts | 0° |
| 2026-05-06 11:29 | 43.75207 | 10.82867 | 37940 ft | 472 kts | 1° |
| 2026-05-06 11:29 | 43.81741 | 10.83722 | 37938 ft | 472 kts | 1° |
| 2026-05-06 11:30 | 43.88282 | 10.84475 | 37946 ft | 472 kts | 0° |
| 2026-05-06 11:30 | 43.94778 | 10.85185 | 37956 ft | 471 kts | 0° |
| 2026-05-06 11:31 | 44.01318 | 10.85906 | 37965 ft | 472 kts | 0° |
| 2026-05-06 11:31 | 44.07861 | 10.86644 | 37975 ft | 472 kts | 1° |
| 2026-05-06 11:32 | 44.14410 | 10.87408 | 37978 ft | 472 kts | 0° |
| 2026-05-06 11:32 | 44.20971 | 10.88174 | 37961 ft | 474 kts | 0° |
| 2026-05-06 11:33 | 44.27538 | 10.88928 | 37948 ft | 474 kts | 0° |
| 2026-05-06 11:33 | 44.34116 | 10.89675 | 37941 ft | 474 kts | 0° |
| 2026-05-06 11:34 | 44.40700 | 10.90426 | 37946 ft | 475 kts | 0° |
| 2026-05-06 11:34 | 44.47286 | 10.91187 | 37961 ft | 475 kts | 0° |
| 2026-05-06 11:35 | 44.53884 | 10.91952 | 37953 ft | 476 kts | 0° |
| 2026-05-06 11:35 | 44.60499 | 10.92720 | 37934 ft | 477 kts | 0° |
| 2026-05-06 11:36 | 44.67114 | 10.93496 | 37940 ft | 477 kts | 0° |
| 2026-05-06 11:36 | 44.73739 | 10.94271 | 37919 ft | 478 kts | 0° |
| 2026-05-06 11:37 | 44.80376 | 10.95044 | 37911 ft | 479 kts | 0° |
| 2026-05-06 11:37 | 44.87024 | 10.95828 | 37926 ft | 480 kts | 0° |
| 2026-05-06 11:38 | 44.93678 | 10.96603 | 37929 ft | 480 kts | 0° |
| 2026-05-06 11:38 | 45.00336 | 10.97382 | 37934 ft | 480 kts | 0° |
| 2026-05-06 11:39 | 45.06997 | 10.98164 | 37944 ft | 480 kts | 0° |
| 2026-05-06 11:39 | 45.13647 | 10.98956 | 37944 ft | 479 kts | 0° |
| 2026-05-06 11:40 | 45.20291 | 10.99741 | 37943 ft | 479 kts | 0° |
| 2026-05-06 11:40 | 45.26925 | 11.00523 | 37951 ft | 478 kts | 0° |
| 2026-05-06 11:41 | 45.32443 | 11.01188 | 37915 ft | 479 kts | 0° |
| 2026-05-06 11:41 | 45.39076 | 11.01978 | 37903 ft | 478 kts | 0° |
| 2026-05-06 11:42 | 45.45713 | 11.02766 | 37910 ft | 479 kts | 0° |
| 2026-05-06 11:42 | 45.52353 | 11.03569 | 37906 ft | 479 kts | 0° |
| 2026-05-06 11:43 | 45.59001 | 11.04376 | 37908 ft | 479 kts | 0° |
| 2026-05-06 11:43 | 45.65649 | 11.05175 | 37934 ft | 480 kts | 0° |
| 2026-05-06 11:44 | 45.75623 | 11.06371 | 37930 ft | 479 kts | 0° |
| 2026-05-06 11:44 | 45.82268 | 11.07172 | 37947 ft | 479 kts | 0° |
| 2026-05-06 11:45 | 45.88911 | 11.07976 | 37943 ft | 479 kts | 0° |
| 2026-05-06 11:45 | 45.95543 | 11.08786 | 37931 ft | 478 kts | 0° |
| 2026-05-06 11:46 | 46.02164 | 11.09599 | 37940 ft | 478 kts | 0° |
| 2026-05-06 11:46 | 46.08784 | 11.10416 | 37969 ft | 477 kts | 0° |
| 2026-05-06 11:47 | 46.15382 | 11.11224 | 37985 ft | 475 kts | 0° |
| 2026-05-06 11:47 | 46.21965 | 11.12031 | 37999 ft | 474 kts | 0° |
| 2026-05-06 11:48 | 46.28533 | 11.12840 | 37997 ft | 474 kts | 0° |
| 2026-05-06 11:48 | 46.35095 | 11.13657 | 37994 ft | 473 kts | 0° |
| 2026-05-06 11:49 | 46.41648 | 11.14472 | 37902 ft | 472 kts | 0° |
| 2026-05-06 11:49 | 46.48178 | 11.15280 | 37903 ft | 470 kts | 0° |
| 2026-05-06 11:50 | 46.51435 | 11.15678 | 37756 ft | 470 kts | 0° |
| 2026-05-06 11:50 | 46.54714 | 11.16073 | 36589 ft | 482 kts | 360° |
| 2026-05-06 11:50 | 46.58088 | 11.16479 | 35720 ft | 486 kts | 359° |
| 2026-05-06 11:50 | 46.61461 | 11.16893 | 34962 ft | 487 kts | 359° |
| 2026-05-06 11:51 | 46.64830 | 11.17317 | 34417 ft | 485 kts | 359° |
| 2026-05-06 11:51 | 46.68193 | 11.17748 | 33772 ft | 485 kts | 358° |
| 2026-05-06 11:51 | 46.71552 | 11.18179 | 33121 ft | 483 kts | 358° |
| 2026-05-06 11:51 | 46.74890 | 11.18608 | 32522 ft | 481 kts | 358° |
| 2026-05-06 11:52 | 46.78218 | 11.19034 | 31909 ft | 479 kts | 358° |
| 2026-05-06 11:52 | 46.81530 | 11.19452 | 31301 ft | 477 kts | 358° |
| 2026-05-06 11:52 | 46.84834 | 11.19865 | 30710 ft | 476 kts | 358° |
| 2026-05-06 11:52 | 46.88130 | 11.20273 | 30109 ft | 475 kts | 359° |
| 2026-05-06 11:53 | 46.91414 | 11.20683 | 29465 ft | 472 kts | 359° |
| 2026-05-06 11:53 | 46.94657 | 11.21094 | 28942 ft | 464 kts | 358° |
| 2026-05-06 11:53 | 46.97856 | 11.21430 | 28438 ft | 457 kts | 357° |
| 2026-05-06 11:53 | 47.01008 | 11.21671 | 27907 ft | 450 kts | 355° |
| 2026-05-06 11:54 | 47.04104 | 11.21847 | 27442 ft | 442 kts | 355° |
| 2026-05-06 11:54 | 47.07156 | 11.21992 | 26973 ft | 436 kts | 355° |
| 2026-05-06 11:54 | 47.10174 | 11.22140 | 26493 ft | 432 kts | 356° |
| 2026-05-06 11:54 | 47.13163 | 11.22311 | 26030 ft | 428 kts | 356° |
| 2026-05-06 11:55 | 47.16131 | 11.22496 | 25571 ft | 425 kts | 356° |
| 2026-05-06 11:55 | 47.19073 | 11.22692 | 25075 ft | 422 kts | 357° |
| 2026-05-06 11:55 | 47.22003 | 11.22892 | 24599 ft | 420 kts | 357° |
| 2026-05-06 11:55 | 47.24910 | 11.23095 | 24117 ft | 417 kts | 357° |
| 2026-05-06 11:56 | 47.27807 | 11.23296 | 23605 ft | 416 kts | 358° |
| 2026-05-06 11:56 | 47.30699 | 11.23494 | 23012 ft | 416 kts | 358° |
| 2026-05-06 11:56 | 47.33595 | 11.23691 | 22345 ft | 417 kts | 358° |
| 2026-05-06 11:56 | 47.36495 | 11.23888 | 21713 ft | 417 kts | 359° |
| 2026-05-06 11:57 | 47.39388 | 11.24089 | 21165 ft | 415 kts | 359° |
| 2026-05-06 11:57 | 47.42264 | 11.24288 | 20823 ft | 410 kts | 359° |
| 2026-05-06 11:57 | 47.45104 | 11.24498 | 20350 ft | 408 kts | 359° |
| 2026-05-06 11:57 | 47.47930 | 11.24698 | 19872 ft | 405 kts | 359° |
| 2026-05-06 11:58 | 47.50736 | 11.24879 | 19399 ft | 402 kts | 359° |
| 2026-05-06 11:58 | 47.53522 | 11.25047 | 18957 ft | 400 kts | 359° |
| 2026-05-06 11:58 | 47.56298 | 11.25194 | 18505 ft | 398 kts | 359° |
| 2026-05-06 11:58 | 47.59056 | 11.25331 | 18058 ft | 396 kts | 359° |
| 2026-05-06 11:59 | 47.61799 | 11.25458 | 17595 ft | 394 kts | 359° |
| 2026-05-06 11:59 | 47.64531 | 11.25599 | 17171 ft | 392 kts | 359° |
| 2026-05-06 11:59 | 47.67248 | 11.25739 | 16751 ft | 390 kts | 359° |
| 2026-05-06 11:59 | 47.69945 | 11.25875 | 16332 ft | 386 kts | 359° |
| 2026-05-06 12:00 | 47.72619 | 11.26015 | 15894 ft | 383 kts | 359° |
| 2026-05-06 12:00 | 47.75271 | 11.26160 | 15462 ft | 380 kts | 359° |
| 2026-05-06 12:00 | 47.77902 | 11.26305 | 15031 ft | 377 kts | 359° |
| 2026-05-06 12:00 | 47.80513 | 11.26455 | 14618 ft | 374 kts | 359° |
| 2026-05-06 12:01 | 47.83107 | 11.26608 | 14206 ft | 371 kts | 359° |
| 2026-05-06 12:01 | 47.85675 | 11.26759 | 13804 ft | 368 kts | 359° |
| 2026-05-06 12:01 | 47.88228 | 11.26917 | 13374 ft | 366 kts | 359° |
| 2026-05-06 12:01 | 47.90724 | 11.27087 | 12937 ft | 362 kts | 359° |
| 2026-05-06 12:02 | 47.93234 | 11.27272 | 12495 ft | 359 kts | 359° |
| 2026-05-06 12:02 | 47.95718 | 11.27441 | 12061 ft | 356 kts | 359° |
| 2026-05-06 12:02 | 47.98176 | 11.27586 | 11705 ft | 351 kts | 359° |
| 2026-05-06 12:02 | 48.00598 | 11.27714 | 11349 ft | 346 kts | 359° |
| 2026-05-06 12:03 | 48.02988 | 11.27823 | 10977 ft | 342 kts | 359° |
| 2026-05-06 12:03 | 48.05346 | 11.27910 | 10602 ft | 334 kts | 359° |
| 2026-05-06 12:03 | 48.07611 | 11.27975 | 10235 ft | 318 kts | 359° |
| 2026-05-06 12:03 | 48.09798 | 11.28022 | 9883 ft | 313 kts | 359° |
| 2026-05-06 12:04 | 48.11969 | 11.28066 | 9501 ft | 311 kts | 359° |
| 2026-05-06 12:04 | 48.14134 | 11.28116 | 9081 ft | 310 kts | 359° |
| 2026-05-06 12:04 | 48.16287 | 11.28160 | 8667 ft | 309 kts | 359° |
| 2026-05-06 12:04 | 48.18433 | 11.28197 | 8257 ft | 307 kts | 0° |
| 2026-05-06 12:05 | 48.20516 | 11.28782 | 7845 ft | 305 kts | 21° |
| 2026-05-06 12:05 | 48.22461 | 11.29995 | 7503 ft | 301 kts | 24° |
| 2026-05-06 12:05 | 48.24360 | 11.31248 | 7201 ft | 295 kts | 24° |
| 2026-05-06 12:05 | 48.26226 | 11.32480 | 6908 ft | 291 kts | 24° |
| 2026-05-06 12:06 | 48.28069 | 11.33693 | 6624 ft | 286 kts | 25° |
| 2026-05-06 12:06 | 48.29710 | 11.35281 | 6328 ft | 279 kts | 47° |
| 2026-05-06 12:06 | 48.30953 | 11.37487 | 6034 ft | 275 kts | 54° |
| 2026-05-06 12:06 | 48.32114 | 11.39749 | 5726 ft | 271 kts | 54° |
| 2026-05-06 12:07 | 48.33191 | 11.42027 | 5415 ft | 264 kts | 64° |
| 2026-05-06 12:07 | 48.33740 | 11.44602 | 5120 ft | 256 kts | 84° |
| 2026-05-06 12:07 | 48.33951 | 11.47237 | 4823 ft | 252 kts | 85° |
| 2026-05-06 12:07 | 48.34156 | 11.49835 | 4523 ft | 248 kts | 84° |
| 2026-05-06 12:08 | 48.34358 | 11.52375 | 4209 ft | 239 kts | 84° |
| 2026-05-06 12:08 | 48.34550 | 11.54774 | 4021 ft | 223 kts | 84° |
| 2026-05-06 12:08 | 48.34726 | 11.56986 | 3969 ft | 204 kts | 84° |
| 2026-05-06 12:08 | 48.34886 | 11.59018 | 3814 ft | 189 kts | 84° |
| 2026-05-06 12:09 | 48.35037 | 11.60923 | 3565 ft | 179 kts | 84° |
| 2026-05-06 12:09 | 48.35180 | 11.62736 | 3352 ft | 173 kts | 83° |
| 2026-05-06 12:09 | 48.35320 | 11.64528 | 3113 ft | 172 kts | 83° |
| 2026-05-06 12:09 | 48.35452 | 11.66204 | 2901 ft | 153 kts | 82° |
| 2026-05-06 12:10 | 48.35571 | 11.67725 | 2704 ft | 141 kts | 82° |
| 2026-05-06 12:10 | 48.35683 | 11.69158 | 2519 ft | 135 kts | 82° |
| 2026-05-06 12:10 | 48.35793 | 11.70559 | 2339 ft | 134 kts | 81° |
| 2026-05-06 12:10 | 48.35902 | 11.71963 | 2153 ft | 136 kts | 82° |
| 2026-05-06 12:11 | 48.36009 | 11.73369 | 1952 ft | 136 kts | 81° |
| 2026-05-06 12:11 | 48.36121 | 11.74785 | 1766 ft | 137 kts | 82° |
| 2026-05-06 12:11 | 48.36231 | 11.76209 | 1576 ft | 137 kts | 81° |
| 2026-05-06 12:11 | 48.36341 | 11.77603 | 1484 ft | 126 kts | 82° |
| 2026-05-06 12:12 | 48.36419 | 11.78636 | 1485 ft | 72 kts | 83° |
| 2026-05-06 12:12 | 48.36446 | 11.79213 | 1485 ft | 47 kts | 98° |
| 2026-05-06 12:12 | 48.36359 | 11.79575 | 1481 ft | 25 kts | 113° |
| 2026-05-06 12:12 | 48.36281 | 11.79786 | 1478 ft | 14 kts | 154° |
| 2026-05-06 12:13 | 48.36231 | 11.79701 | 1481 ft | 16 kts | 265° |
| 2026-05-06 12:13 | 48.36213 | 11.79511 | 1485 ft | 17 kts | 250° |
| 2026-05-06 12:13 | 48.36120 | 11.79474 | 1485 ft | 14 kts | 174° |
| 2026-05-06 12:13 | 48.36034 | 11.79489 | 1480 ft | 7 kts | 173° |
| 2026-05-06 12:14 | 48.35987 | 11.79498 | 1477 ft | 6 kts | 173° |
| 2026-05-06 12:14 | 48.35916 | 11.79510 | 1485 ft | 16 kts | 173° |
| 2026-05-06 12:14 | 48.35804 | 11.79558 | 1484 ft | 16 kts | 124° |
| 2026-05-06 12:14 | 48.35809 | 11.79726 | 1482 ft | 17 kts | 83° |
| 2026-05-06 12:15 | 48.35823 | 11.79920 | 1485 ft | 20 kts | 83° |
| 2026-05-06 12:15 | 48.35813 | 11.80051 | 1475 ft | 11 kts | 135° |
| 2026-05-06 12:15 | 48.35753 | 11.80036 | 1474 ft | 9 kts | 245° |
| 2026-05-06 12:15 | 48.35745 | 11.79948 | 1477 ft | 8 kts | 263° |
| 2026-05-06 12:16 | 48.35743 | 11.79918 | 1481 ft | 0 kts | 263° |